Lookout, West Virginia
Current Conditions -  °F | °C
As of 2:51 AM on Thursday 23 Oct 2014 (Local Time) from KBKW Reporting Station
Overcast Overcast  
Wind Chill: 37°   Ceiling: 900
Heat Index: 42°   Visibility: 10mi
Dew Point: 39°   Wind: 9mph
Humidity: 89%   Direction: 340°NNW
Pressure: 30.14"   Gusts: NA
Location:  38.06°N, 80.97°W
Report Text: KBKW 230651Z AUTO 34008KT 10SM OVC009 06/04 A3014 RMK AO2 CIG 008V013 SLP217 T00560039 TSNO
Loading
Personal Weather Stations






























Interactive Weather Map
Tropical Storm Tracking
New forecast layout! Learn more

10-Day Weather Forecast

Advertisements
Track Severe Weather on mobile